Mizuho — JD2038 — position and weather

sailwx.info

Track history (hours):
 
Tides and Currents Weather Stations Pressure Air Temp Water Temp Dewpoint Dewpoint Depression Visibility Wind Speed Wind Dir Waves Ship Positions

Mizuho

Last reported at 2018-Feb-24 19:30 UTC. Time now 2018-Feb-24 19:42 UTC.
Position N 35°36' E 140°07'.

Length 32 m; draft 3.9 m.

Type: Tug. MMSI: 431000205.

Date/timePositionNaut miles runAvg speedWind from/ knotsBaromVisibWave heightAir tempDewpointWater temp
2018-Feb-24 19:30N 35°36' E 140°07'0 0.0
2018-Feb-24 19:00N 35°36' E 140°07'0 0.0
2018-Feb-24 18:30N 35°36' E 140°07'0 0.0
2018-Feb-24 18:00N 35°36' E 140°07'0 0.0
2018-Feb-24 17:30N 35°36' E 140°07'0 0.0
2018-Feb-24 17:00N 35°36' E 140°07'0 0.0
2018-Feb-24 16:28N 35°36' E 140°07'0 0.0
2018-Feb-24 16:00N 35°36' E 140°07'0 0.0
2018-Feb-24 15:30N 35°36' E 140°07'0 0.0
2018-Feb-24 15:00N 35°36' E 140°07'0 0.0
2018-Feb-24 14:30N 35°36' E 140°07'0 0.0
2018-Feb-24 14:00N 35°36' E 140°07'0 0.0
2018-Feb-24 13:30N 35°36' E 140°07'0 0.0
2018-Feb-24 13:00N 35°36' E 140°07'0 0.0
2018-Feb-24 12:30N 35°36' E 140°07'0 0.0
2018-Feb-24 12:00N 35°36' E 140°07'0 0.0
2018-Feb-24 11:30N 35°36' E 140°07'0 0.0
2018-Feb-24 10:59N 35°36' E 140°07'0 0.0
2018-Feb-24 10:30N 35°36' E 140°07'0 0.0
2018-Feb-24 10:00N 35°36' E 140°07'0 0.0
2018-Feb-24 09:30N 35°36' E 140°07'0 0.0
2018-Feb-24 09:00N 35°36' E 140°07'0 0.0
2018-Feb-24 08:30N 35°36' E 140°07'1 1.7
2018-Feb-24 08:00N 35°36' E 140°06'0 0.0
2018-Feb-24 07:30N 35°36' E 140°06'1 2.3
2018-Feb-24 07:00N 35°35' E 140°05'0 0.0
2018-Feb-24 06:30N 35°35' E 140°05'0 0.0
2018-Feb-24 06:00N 35°35' E 140°05'0 0.0
2018-Feb-24 05:30N 35°35' E 140°05'1 1.8
2018-Feb-24 05:00N 35°36' E 140°06'3 6.4
2018-Feb-24 04:30N 35°32' E 140°05'2 4.8
2018-Feb-24 04:00N 35°34' E 140°03'0 0.6
2018-Feb-24 03:30N 35°34' E 140°03'0 0.0
2018-Feb-24 03:01N 35°34' E 140°03'0 0.0
2018-Feb-24 02:30N 35°34' E 140°03'0 0.0
2018-Feb-24 02:00N 35°34' E 140°03'0 0.0
2018-Feb-24 01:30N 35°34' E 140°03'0 0.0
2018-Feb-24 01:00N 35°34' E 140°03'0 0.0
2018-Feb-24 00:31N 35°34' E 140°03'2 3.6
2018-Feb-24 00:01N 35°35' E 140°05'1 2.9
2018-Feb-23 23:30N 35°36' E 140°06'0 0.0
2018-Feb-23 23:00N 35°36' E 140°06'0 1.0
2018-Feb-23 22:31N 35°36' E 140°05'2 3.8
2018-Feb-23 22:01N 35°35' E 140°03'4 7.4
2018-Feb-23 21:30N 35°33' E 139°59'1 1.3
2018-Feb-23 20:54N 35°32' E 139°60'3 8.5
2018-Feb-23 20:30N 35°34' E 140°03'4 7.0
2018-Feb-23 20:00N 35°36' E 140°07'0 0.0
2018-Feb-23 19:30N 35°36' E 140°07'0 0.0
2018-Feb-23 19:00N 35°36' E 140°07'0 0.0
2018-Feb-23 18:30N 35°36' E 140°07'0 0.0
2018-Feb-23 18:00N 35°36' E 140°07'0 0.0
2018-Feb-23 17:30N 35°36' E 140°07'0 0.0
2018-Feb-23 17:00N 35°36' E 140°07'0 0.0
2018-Feb-23 16:30N 35°36' E 140°07'0 0.0
2018-Feb-23 16:00N 35°36' E 140°07'0 0.0
2018-Feb-23 15:29N 35°36' E 140°07'0 0.0
2018-Feb-23 15:00N 35°36' E 140°07'0 0.0
2018-Feb-23 14:30N 35°36' E 140°07'0 0.0
2018-Feb-23 14:00N 35°36' E 140°07'0 0.0
2018-Feb-23 13:30N 35°36' E 140°07'0 0.0
2018-Feb-23 13:00N 35°36' E 140°07'0 0.0
2018-Feb-23 12:30N 35°36' E 140°07'0 0.0
2018-Feb-23 12:00N 35°36' E 140°07'0 0.0
2018-Feb-23 11:30N 35°36' E 140°07'0 0.0
2018-Feb-23 11:00N 35°36' E 140°07'0 0.0
2018-Feb-23 10:30N 35°36' E 140°07'0 0.0
2018-Feb-23 10:00N 35°36' E 140°07'0 0.0
2018-Feb-23 09:30N 35°36' E 140°07'0 0.0
2018-Feb-23 09:00N 35°36' E 140°07'0 0.0
2018-Feb-23 08:30N 35°36' E 140°07'0 0.0
2018-Feb-23 08:00N 35°36' E 140°07'0 0.0
2018-Feb-23 07:30N 35°36' E 140°07'0 0.0
2018-Feb-23 07:00N 35°36' E 140°07'0 0.0
2018-Feb-23 06:30N 35°36' E 140°07'0 0.0
2018-Feb-23 06:00N 35°36' E 140°07'2 3.8
2018-Feb-23 05:31N 35°35' E 140°05'5 9.8
2018-Feb-23 05:00N 35°31' E 140°02'1 2.3
2018-Feb-23 04:30N 35°31' E 140°01'0 0.5
2018-Feb-23 04:00N 35°31' E 140°01'0 0.0
2018-Feb-23 03:30N 35°31' E 140°01'0 0.0
2018-Feb-23 03:00N 35°31' E 140°01'0 0.0
2018-Feb-23 02:28N 35°31' E 140°01'0 0.0
2018-Feb-23 01:59N 35°31' E 140°01'0 0.0
2018-Feb-23 01:30N 35°31' E 140°01'1 2.6
2018-Feb-23 01:00N 35°32' E 140°02'4 8.0
2018-Feb-23 00:31N 35°35' E 140°05'2 3.2
2018-Feb-23 00:00N 35°36' E 140°07'1 2.7
2018-Feb-22 23:30N 35°36' E 140°05'0 0.1
2018-Feb-22 23:00N 35°36' E 140°05'1 1.1
2018-Feb-22 22:29N 35°36' E 140°05'2 5.2
2018-Feb-22 22:01N 35°35' E 140°03'3 6.0
2018-Feb-22 21:30N 35°33' E 139°60'0 0.5
2018-Feb-22 21:00N 35°32' E 139°59'2 4.6
2018-Feb-22 20:30N 35°34' E 140°02'5 9.1
2018-Feb-22 20:00N 35°36' E 140°07'0 0.0
2018-Feb-22 19:30N 35°36' E 140°07'0 0.0
2018-Feb-22 19:00N 35°36' E 140°07'0 0.0
2018-Feb-22 18:30N 35°36' E 140°07'0 0.0
2018-Feb-22 18:00N 35°36' E 140°07'0 0.0
2018-Feb-22 17:30N 35°36' E 140°07'0 0.0
2018-Feb-22 17:00N 35°36' E 140°07'0 0.0
2018-Feb-22 16:30N 35°36' E 140°07'0 0.0
2018-Feb-22 16:00N 35°36' E 140°07'0 0.0
2018-Feb-22 15:30N 35°36' E 140°07'0 0.0
2018-Feb-22 15:00N 35°36' E 140°07'0 0.0
2018-Feb-22 14:30N 35°36' E 140°07'0 0.0
2018-Feb-22 14:00N 35°36' E 140°07'0 0.0
2018-Feb-22 13:30N 35°36' E 140°07'0 0.0
2018-Feb-22 13:00N 35°36' E 140°07'0 0.0
2018-Feb-22 12:30N 35°36' E 140°07'0 0.0
2018-Feb-22 12:00N 35°36' E 140°07'0 0.0
2018-Feb-22 11:28N 35°36' E 140°07'0 0.0
2018-Feb-22 11:00N 35°36' E 140°07'0 0.0
2018-Feb-22 10:30N 35°36' E 140°07'0 0.0
2018-Feb-22 10:00N 35°36' E 140°07'0 0.0
2018-Feb-22 09:30N 35°36' E 140°07'0 0.0
2018-Feb-22 09:00N 35°36' E 140°07'0 0.0
2018-Feb-22 08:29N 35°36' E 140°07'0 0.0
2018-Feb-22 07:56N 35°36' E 140°07'0 1.1
2018-Feb-22 07:31N 35°35' E 140°06'0 0.9
2018-Feb-22 06:59N 35°36' E 140°07'0 0.0
2018-Feb-22 06:30N 35°36' E 140°07'0 0.0
2018-Feb-22 06:00N 35°36' E 140°07'0 0.0
2018-Feb-22 05:30N 35°36' E 140°07'0 0.0
2018-Feb-22 05:00N 35°36' E 140°07'2 4.8
2018-Feb-22 04:31N 35°35' E 140°04'510.0
2018-Feb-22 04:00N 35°31' E 139°60'4 8.6
2018-Feb-22 03:30N 35°27' E 139°58'0 0.1
2018-Feb-22 03:00N 35°27' E 139°58'0 0.1
2018-Feb-22 02:30N 35°27' E 139°58'2 3.7
2018-Feb-22 01:59N 35°29' E 139°57'0 0.9
2018-Feb-22 01:30N 35°29' E 139°57'0 0.0
2018-Feb-22 00:59N 35°29' E 139°57'2 3.5
2018-Feb-22 00:28N 35°30' E 139°58'4 9.7
2018-Feb-22 00:00N 35°33' E 140°02'4 7.9
2018-Feb-21 23:31N 35°35' E 140°06'1 1.0
2018-Feb-21 23:00N 35°36' E 140°07'0 0.0
2018-Feb-21 22:30N 35°36' E 140°07'0 0.0
2018-Feb-21 22:00N 35°36' E 140°07'0 0.0
2018-Feb-21 21:30N 35°36' E 140°07'0 0.0
2018-Feb-21 21:00N 35°36' E 140°07'0 0.0
2018-Feb-21 20:30N 35°36' E 140°07'0 0.0
2018-Feb-21 19:59N 35°36' E 140°07'0 0.0
2018-Feb-21 19:30N 35°36' E 140°07'0 0.0
2018-Feb-21 19:00N 35°36' E 140°07'0 0.0
2018-Feb-21 18:30N 35°36' E 140°07'0 0.0
2018-Feb-21 18:00N 35°36' E 140°07'0 0.0
2018-Feb-21 17:30N 35°36' E 140°07'0 0.0
2018-Feb-21 17:01N 35°36' E 140°07'0 0.0
2018-Feb-21 16:30N 35°36' E 140°07'0 0.0
2018-Feb-21 16:00N 35°36' E 140°07'0 0.0
2018-Feb-21 15:30N 35°36' E 140°07'0 0.0
2018-Feb-21 15:00N 35°36' E 140°07'0 0.0
2018-Feb-21 14:30N 35°36' E 140°07'0 0.0
2018-Feb-21 14:00N 35°36' E 140°07'0 0.0
2018-Feb-21 13:31N 35°36' E 140°07'0 0.0
2018-Feb-21 13:00N 35°36' E 140°07'0 0.0
2018-Feb-21 12:30N 35°36' E 140°07'0 0.0
2018-Feb-21 12:00N 35°36' E 140°07'0 0.0
2018-Feb-21 11:30N 35°36' E 140°07'0 0.0
2018-Feb-21 11:00N 35°36' E 140°07'0 0.0
2018-Feb-21 10:30N 35°36' E 140°07'0 0.0
2018-Feb-21 10:00N 35°36' E 140°07'0 0.0
2018-Feb-21 09:30N 35°36' E 140°07'0 0.0
2018-Feb-21 09:00N 35°36' E 140°07'0 0.0
2018-Feb-21 08:30N 35°36' E 140°07'0 0.0
2018-Feb-21 08:00N 35°36' E 140°07'0 0.0
2018-Feb-21 07:30N 35°36' E 140°07'0 0.0
2018-Feb-21 07:00N 35°36' E 140°07'0 0.0
2018-Feb-21 06:30N 35°36' E 140°07'0 0.0
2018-Feb-21 06:00N 35°36' E 140°07'0 0.0
2018-Feb-21 05:30N 35°36' E 140°07'0 0.0
2018-Feb-21 05:00N 35°36' E 140°07'0 0.4
2018-Feb-21 04:30N 35°36' E 140°07'4 8.8
2018-Feb-21 04:00N 35°33' E 140°03'1 1.1
2018-Feb-21 03:30N 35°32' E 140°03'0 0.8
2018-Feb-21 03:00N 35°33' E 140°03'0 0.0
2018-Feb-21 02:30N 35°33' E 140°03'0 0.0
2018-Feb-21 02:00N 35°33' E 140°03'3 5.2
2018-Feb-21 01:31N 35°35' E 140°04'2 4.4
2018-Feb-21 01:00N 35°36' E 140°07'0 0.0
2018-Feb-21 00:30N 35°36' E 140°07'0 0.0
2018-Feb-21 00:00N 35°36' E 140°07'0 0.0
2018-Feb-20 23:30N 35°36' E 140°07'2 3.3
2018-Feb-20 23:00N 35°36' E 140°05'0 0.1
2018-Feb-20 22:31N 35°36' E 140°05'1 2.0
2018-Feb-20 22:00N 35°35' E 140°05'3 6.3
2018-Feb-20 21:30N 35°34' E 140°01'3 4.6
2018-Feb-20 20:57N 35°32' E 139°59'3 7.5
2018-Feb-20 20:30N 35°34' E 140°02'4 8.3
2018-Feb-20 20:00N 35°36' E 140°07'0 0.0
2018-Feb-20 19:31N 35°36' E 140°07'0 0.0
2018-Feb-20 19:00N 35°36' E 140°07'0 0.0
2018-Feb-20 18:31N 35°36' E 140°07'0 0.0
2018-Feb-20 18:00N 35°36' E 140°07'0 0.0
2018-Feb-20 17:30N 35°36' E 140°07'0 0.0
2018-Feb-20 17:00N 35°36' E 140°07'0 0.0
2018-Feb-20 16:31N 35°36' E 140°07'0 0.0
2018-Feb-20 16:00N 35°36' E 140°07'0 0.0
2018-Feb-20 15:31N 35°36' E 140°07'0 0.0
2018-Feb-20 15:01N 35°36' E 140°07'0 0.0
2018-Feb-20 14:30N 35°36' E 140°07'0 0.0
2018-Feb-20 14:00N 35°36' E 140°07'0 0.0
2018-Feb-20 13:31N 35°36' E 140°07'0 0.0
2018-Feb-20 13:01N 35°36' E 140°07'0 0.0
2018-Feb-20 12:31N 35°36' E 140°07'0 0.0
2018-Feb-20 12:01N 35°36' E 140°07'0 0.0
2018-Feb-20 11:31N 35°36' E 140°07'0 0.0
2018-Feb-20 11:01N 35°36' E 140°07'0 0.0
2018-Feb-20 10:31N 35°36' E 140°07'0 0.0
2018-Feb-20 10:00N 35°36' E 140°07'0 0.0
2018-Feb-20 09:30N 35°36' E 140°07'0 0.0
2018-Feb-20 09:00N 35°36' E 140°07'0 0.0
2018-Feb-20 08:30N 35°36' E 140°07'0 0.0
2018-Feb-20 08:01N 35°36' E 140°07'0 0.0
2018-Feb-20 07:30N 35°36' E 140°07'0 0.0
2018-Feb-20 07:00N 35°36' E 140°07'0 0.1
2018-Feb-20 06:31N 35°36' E 140°07'0 0.1
2018-Feb-20 06:00N 35°36' E 140°07'2 3.0
2018-Feb-20 05:30N 35°35' E 140°05'510.0
2018-Feb-20 04:58N 35°31' E 140°02'0 0.9
2018-Feb-20 04:30N 35°31' E 140°02'4 7.7
2018-Feb-20 04:01N 35°32' E 139°57'0 0.4
2018-Feb-20 03:22N 35°32' E 139°57'410.4
2018-Feb-20 03:01N 35°34' E 140°01'5 9.5
2018-Feb-20 02:30N 35°36' E 140°07'0 0.0
2018-Feb-20 02:00N 35°36' E 140°07'0 0.0
2018-Feb-20 01:31N 35°36' E 140°07'2 4.5
2018-Feb-20 01:00N 35°35' E 140°04'612.0
2018-Feb-20 00:28N 35°29' E 140°00'0 1.0
2018-Feb-20 00:00N 35°29' E 140°01'0 0.0
2018-Feb-19 23:30N 35°29' E 140°01'0 0.2
2018-Feb-19 23:00N 35°29' E 140°01'2 3.4
2018-Feb-19 22:30N 35°30' E 139°59'4 7.4
2018-Feb-19 21:56N 35°34' E 139°56'0 0.7
2018-Feb-19 21:30N 35°34' E 139°56'5 9.6
2018-Feb-19 21:00N 35°35' E 140°02'4 8.8
2018-Feb-19 20:31N 35°36' E 140°07'0 0.0
2018-Feb-19 20:00N 35°36' E 140°07'0 0.0
2018-Feb-19 19:30N 35°36' E 140°07'0 0.0
2018-Feb-19 19:00N 35°36' E 140°07'0 0.0
2018-Feb-19 18:30N 35°36' E 140°07'0 0.0
2018-Feb-19 18:00N 35°36' E 140°07'0 0.0
2018-Feb-19 17:30N 35°36' E 140°07'0 0.0
2018-Feb-19 17:00N 35°36' E 140°07'0 0.0
2018-Feb-19 16:29N 35°36' E 140°07'0 0.0
2018-Feb-19 16:00N 35°36' E 140°07'0 0.0
2018-Feb-19 15:28N 35°36' E 140°07'0 0.0
2018-Feb-19 15:00N 35°36' E 140°07'0 0.0
2018-Feb-19 14:29N 35°36' E 140°07'0 0.0
2018-Feb-19 14:00N 35°36' E 140°07'0 0.0
2018-Feb-19 13:30N 35°36' E 140°07'0 0.0
2018-Feb-19 13:00N 35°36' E 140°07'0 0.0
2018-Feb-19 12:30N 35°36' E 140°07'0 0.0
2018-Feb-19 11:59N 35°36' E 140°07'0 0.0
2018-Feb-19 11:29N 35°36' E 140°07'0 0.0
2018-Feb-19 10:53N 35°36' E 140°07'0 0.0
2018-Feb-19 10:27N 35°36' E 140°07'0 0.0
2018-Feb-19 09:58N 35°36' E 140°07'0 0.0
2018-Feb-19 09:30N 35°36' E 140°07'0 0.0
2018-Feb-19 09:00N 35°36' E 140°07'0 0.0
2018-Feb-19 08:25N 35°36' E 140°07'0 0.0
2018-Feb-19 08:00N 35°36' E 140°07'0 0.0
2018-Feb-19 07:29N 35°36' E 140°07'0 0.0
2018-Feb-19 07:00N 35°36' E 140°07'0 0.0
2018-Feb-19 06:30N 35°36' E 140°07'0 0.0
2018-Feb-19 06:00N 35°36' E 140°07'0 0.0
2018-Feb-19 05:30N 35°36' E 140°07'0 0.0
2018-Feb-19 05:00N 35°36' E 140°07'0 0.0
2018-Feb-19 04:30N 35°36' E 140°07'0 0.0
2018-Feb-19 04:00N 35°36' E 140°07'0 0.0
2018-Feb-19 03:30N 35°36' E 140°07'1 2.6
2018-Feb-19 03:00N 35°36' E 140°05'1 1.6
2018-Feb-19 02:30N 35°36' E 140°05'0 0.9
2018-Feb-19 02:00N 35°36' E 140°05'2 4.9
2018-Feb-19 01:30N 35°35' E 140°03'1 1.9
2018-Feb-19 01:00N 35°35' E 140°02'0 0.7
2018-Feb-19 00:29N 35°35' E 140°01'0 0.0
2018-Feb-19 00:00N 35°35' E 140°01'0 0.0
2018-Feb-18 23:30N 35°35' E 140°01'3 6.2
2018-Feb-18 23:01N 35°36' E 140°05'0 0.9
2018-Feb-18 22:30N 35°36' E 140°05'2 4.2
2018-Feb-18 22:00N 35°35' E 140°03'3 5.5
2018-Feb-18 21:31N 35°34' E 140°00'2 3.1
2018-Feb-18 21:00N 35°35' E 140°02'4 8.6
2018-Feb-18 20:30N 35°36' E 140°07'0 0.0
2018-Feb-18 19:58N 35°36' E 140°07'0 0.0
2018-Feb-18 19:30N 35°36' E 140°07'0 0.0
2018-Feb-18 19:00N 35°36' E 140°07'0 0.0
2018-Feb-18 18:30N 35°36' E 140°07'0 0.0
2018-Feb-18 18:00N 35°36' E 140°07'0 0.0
2018-Feb-18 17:30N 35°36' E 140°07'0 0.0
2018-Feb-18 17:00N 35°36' E 140°07'0 0.0
2018-Feb-18 16:30N 35°36' E 140°07'0 0.0
2018-Feb-18 16:00N 35°36' E 140°07'0 0.0
2018-Feb-18 15:30N 35°36' E 140°07'0 0.0
2018-Feb-18 14:59N 35°36' E 140°07'0 0.0
2018-Feb-18 14:30N 35°36' E 140°07'0 0.0
2018-Feb-18 14:00N 35°36' E 140°07'0 0.0
2018-Feb-18 13:29N 35°36' E 140°07'0 0.0
2018-Feb-18 12:59N 35°36' E 140°07'0 0.0
2018-Feb-18 12:30N 35°36' E 140°07'0 0.0
2018-Feb-18 12:00N 35°36' E 140°07'0 0.0
2018-Feb-18 11:30N 35°36' E 140°07'0 0.0
2018-Feb-18 10:59N 35°36' E 140°07'0 0.0
2018-Feb-18 10:30N 35°36' E 140°07'0 0.0
2018-Feb-18 10:00N 35°36' E 140°07'0 0.0
2018-Feb-18 09:30N 35°36' E 140°07'0 0.0
2018-Feb-18 09:00N 35°36' E 140°07'0 0.0
2018-Feb-18 08:07N 35°36' E 140°07'0 0.1
2018-Feb-18 08:00N 35°36' E 140°07'0 0.0
2018-Feb-18 07:29N 35°36' E 140°07'0 0.0
2018-Feb-18 07:00N 35°36' E 140°07'0 0.0
2018-Feb-18 06:30N 35°36' E 140°07'0 0.0
2018-Feb-18 06:00N 35°36' E 140°07'0 0.0
2018-Feb-18 05:30N 35°36' E 140°07'0 0.0
2018-Feb-18 05:00N 35°36' E 140°07'0 0.0
2018-Feb-18 04:30N 35°36' E 140°07'0 0.0
2018-Feb-18 04:00N 35°36' E 140°07'0 0.0
2018-Feb-18 03:31N 35°36' E 140°07'0 0.0
2018-Feb-18 03:01N 35°36' E 140°07'0 0.0
2018-Feb-18 02:30N 35°36' E 140°07'0 0.0
2018-Feb-18 02:00N 35°36' E 140°07'0 0.0
2018-Feb-18 01:30N 35°36' E 140°07'0 0.0
2018-Feb-18 01:01N 35°36' E 140°07'0 0.0
2018-Feb-18 00:30N 35°36' E 140°07'0 0.0
2018-Feb-18 00:00N 35°36' E 140°07'0 0.0
2018-Feb-17 23:31N 35°36' E 140°07'0 0.0
2018-Feb-17 23:00N 35°36' E 140°07'0 0.0
2018-Feb-17 22:30N 35°36' E 140°07'0 0.0
2018-Feb-17 21:51N 35°36' E 140°07'0 0.0
2018-Feb-17 17:16N 35°36' E 140°07'0 0.0
2018-Feb-17 17:00N 35°36' E 140°07'0 0.0
2018-Feb-17 16:30N 35°36' E 140°07'0 0.0
2018-Feb-17 16:00N 35°36' E 140°07'0 0.0
2018-Feb-17 15:28N 35°36' E 140°07'0 0.0
2018-Feb-17 15:00N 35°36' E 140°07'0 0.0
2018-Feb-17 14:30N 35°36' E 140°07'0 0.0
2018-Feb-17 14:00N 35°36' E 140°07'0 0.0
2018-Feb-17 13:30N 35°36' E 140°07'0 0.0
2018-Feb-17 13:00N 35°36' E 140°07'0 0.0
2018-Feb-17 12:30N 35°36' E 140°07'0 0.0
2018-Feb-17 12:00N 35°36' E 140°07'0 0.0
2018-Feb-17 11:30N 35°36' E 140°07'0 0.0
2018-Feb-17 10:59N 35°36' E 140°07'0 0.0
2018-Feb-17 10:30N 35°36' E 140°07'0 0.0
2018-Feb-17 10:00N 35°36' E 140°07'0 0.0
2018-Feb-17 09:30N 35°36' E 140°07'0 0.0
2018-Feb-17 09:00N 35°36' E 140°07'0 0.0
2018-Feb-17 08:30N 35°36' E 140°07'0 0.0
2018-Feb-17 08:00N 35°36' E 140°07'0 0.0
2018-Feb-17 07:27N 35°36' E 140°07'0 0.0
2018-Feb-17 07:00N 35°36' E 140°07'0 0.0
2018-Feb-17 06:29N 35°36' E 140°07'0 0.0
2018-Feb-17 06:00N 35°36' E 140°07'0 0.0
2018-Feb-17 05:30N 35°36' E 140°07'0 0.0
2018-Feb-17 05:00N 35°36' E 140°07'0 0.0
2018-Feb-17 04:30N 35°36' E 140°07'0 0.0
2018-Feb-17 04:00N 35°36' E 140°07'0 0.0
2018-Feb-17 03:30N 35°36' E 140°07'0 0.0
2018-Feb-17 03:00N 35°36' E 140°07'0 0.0
2018-Feb-17 02:29N 35°36' E 140°07'4 8.2
2018-Feb-17 02:00N 35°33' E 140°03'4 7.7
2018-Feb-17 01:30N 35°30' E 140°01'0 0.1
2018-Feb-17 00:57N 35°30' E 140°01'0 0.2
2018-Feb-17 00:29N 35°30' E 140°01'2 3.5
2018-Feb-16 23:56N 35°32' E 140°00'0 0.5
2018-Feb-16 23:31N 35°32' E 140°00'510.9
2018-Feb-16 23:00N 35°35' E 140°05'1 2.8
2018-Feb-16 22:30N 35°36' E 140°07'0 0.0
2018-Feb-16 22:00N 35°36' E 140°07'0 0.0
2018-Feb-16 11:48N 35°36' E 140°07'0 0.0
2018-Feb-16 11:31N 35°36' E 140°07'0 0.0
2018-Feb-16 11:00N 35°36' E 140°07'0 0.0
2018-Feb-16 10:31N 35°36' E 140°07'0 0.0
2018-Feb-16 10:01N 35°36' E 140°07'0 0.0
2018-Feb-16 07:54N 35°36' E 140°07'0 0.0
2018-Feb-16 07:30N 35°36' E 140°07'0 0.0
2018-Feb-16 07:00N 35°36' E 140°07'0 0.0
2018-Feb-16 06:31N 35°36' E 140°07'3 6.8
2018-Feb-16 06:00N 35°36' E 140°03'6 5.1
2018-Feb-16 04:46N 35°40' E 139°57'3 4.4
2018-Feb-16 04:07N 35°38' E 139°59'111.5
2018-Feb-16 04:00N 35°39' E 139°59'1 0.7
2018-Feb-16 02:47N 35°40' E 139°60'1 2.5
2018-Feb-16 02:20N 35°39' E 139°59'2 7.1
2018-Feb-16 02:00N 35°36' E 139°59'1 1.9
2018-Feb-16 01:29N 35°35' E 139°59'0 0.4
2018-Feb-16 00:59N 35°35' E 139°59'0 0.0
2018-Feb-16 00:30N 35°35' E 139°59'0 0.0
2018-Feb-16 00:00N 35°35' E 139°59'2 3.4
2018-Feb-15 23:30N 35°34' E 139°58'0 0.1
2018-Feb-15 23:00N 35°34' E 139°58'5 9.4
2018-Feb-15 22:28N 35°39' E 139°59'1 2.7
2018-Feb-15 21:57N 35°40' E 139°59'2 4.1
2018-Feb-15 21:31N 35°38' E 139°59'4 8.6
2018-Feb-15 21:00N 35°34' E 139°58'2 4.6
2018-Feb-15 20:31N 35°34' E 140°00'510.1
2018-Feb-15 20:00N 35°35' E 140°06'1 1.1
2018-Feb-15 19:31N 35°36' E 140°07'0 0.0
2018-Feb-15 19:00N 35°36' E 140°07'0 0.0
2018-Feb-15 18:31N 35°36' E 140°07'0 0.0
2018-Feb-15 18:00N 35°36' E 140°07'0 0.0
2018-Feb-15 17:31N 35°36' E 140°07'0 0.0
2018-Feb-15 17:00N 35°36' E 140°07'0 0.0
2018-Feb-15 16:30N 35°36' E 140°07'0 0.0
2018-Feb-15 16:00N 35°36' E 140°07'0 0.0
2018-Feb-15 15:30N 35°36' E 140°07'0 0.0
2018-Feb-15 15:00N 35°36' E 140°07'0 0.0
2018-Feb-15 14:30N 35°36' E 140°07'0 0.0
2018-Feb-15 14:00N 35°36' E 140°07'0 0.0
2018-Feb-15 13:30N 35°36' E 140°07'0 0.0
2018-Feb-15 13:00N 35°36' E 140°07'0 0.0
2018-Feb-15 12:30N 35°36' E 140°07'0 0.0
2018-Feb-15 11:27N 35°36' E 140°07'0 0.0
2018-Feb-15 11:00N 35°36' E 140°07'0 0.0
2018-Feb-15 10:30N 35°36' E 140°07'0 0.0
2018-Feb-15 10:00N 35°36' E 140°07'1 1.0
2018-Feb-15 09:30N 35°35' E 140°06'2 3.9
2018-Feb-15 09:00N 35°35' E 140°04'1 2.9
2018-Feb-15 08:31N 35°36' E 140°06'1 1.9
2018-Feb-15 08:00N 35°36' E 140°07'0 0.0
2018-Feb-15 07:30N 35°36' E 140°07'0 0.0
2018-Feb-15 07:00N 35°36' E 140°07'0 0.0
2018-Feb-15 06:30N 35°36' E 140°07'0 0.0
2018-Feb-15 06:00N 35°36' E 140°07'2 4.1
2018-Feb-15 05:31N 35°35' E 140°04'0 0.0
2018-Feb-15 05:00N 35°35' E 140°04'4 9.0
2018-Feb-15 04:30N 35°32' E 140°01'4 8.1
2018-Feb-15 04:00N 35°28' E 139°58'0 0.0
2018-Feb-15 03:30N 35°28' E 139°58'0 0.1
2018-Feb-15 03:01N 35°28' E 139°58'2 2.4
2018-Feb-15 02:22N 35°30' E 139°57'2 4.5
2018-Feb-15 02:00N 35°29' E 139°55'0 0.8
2018-Feb-15 01:30N 35°29' E 139°55'612.0
2018-Feb-15 01:00N 35°33' E 140°01'611.0
2018-Feb-15 00:30N 35°36' E 140°07'0 0.0
2018-Feb-15 00:00N 35°36' E 140°07'0 0.0
2018-Feb-14 23:31N 35°36' E 140°07'1 2.1
2018-Feb-14 23:01N 35°35' E 140°06'1 2.3
2018-Feb-14 22:30N 35°35' E 140°04'2 4.4
2018-Feb-14 22:01N 35°36' E 140°07'0 0.1
2018-Feb-14 21:31N 35°36' E 140°07'  
Track history (hours):
 
Tides and Currents Weather Stations Pressure Air Temp Water Temp Dewpoint Dewpoint Depression Visibility Wind Speed Wind Dir Waves Ship Positions

Mizuho

Last reported at 2018-Feb-24 19:30 UTC. Time now 2018-Feb-24 19:42 UTC.
Position N 35°36' E 140°07'.

Length 32 m; draft 3.9 m.

Type: Tug. MMSI: 431000205.

Date/timePositionNaut miles runAvg speedWind from/ knotsBaromVisibWave heightAir tempDewpointWater temp
2018-Feb-24 19:30N 35°36' E 140°07'0 0.0
2018-Feb-24 19:00N 35°36' E 140°07'0 0.0
2018-Feb-24 18:30N 35°36' E 140°07'0 0.0
2018-Feb-24 18:00N 35°36' E 140°07'0 0.0
2018-Feb-24 17:30N 35°36' E 140°07'0 0.0
2018-Feb-24 17:00N 35°36' E 140°07'0 0.0
2018-Feb-24 16:28N 35°36' E 140°07'0 0.0
2018-Feb-24 16:00N 35°36' E 140°07'0 0.0
2018-Feb-24 15:30N 35°36' E 140°07'0 0.0
2018-Feb-24 15:00N 35°36' E 140°07'0 0.0
2018-Feb-24 14:30N 35°36' E 140°07'0 0.0
2018-Feb-24 14:00N 35°36' E 140°07'0 0.0
2018-Feb-24 13:30N 35°36' E 140°07'0 0.0
2018-Feb-24 13:00N 35°36' E 140°07'0 0.0
2018-Feb-24 12:30N 35°36' E 140°07'0 0.0
2018-Feb-24 12:00N 35°36' E 140°07'0 0.0
2018-Feb-24 11:30N 35°36' E 140°07'0 0.0
2018-Feb-24 10:59N 35°36' E 140°07'0 0.0
2018-Feb-24 10:30N 35°36' E 140°07'0 0.0
2018-Feb-24 10:00N 35°36' E 140°07'0 0.0
2018-Feb-24 09:30N 35°36' E 140°07'0 0.0
2018-Feb-24 09:00N 35°36' E 140°07'0 0.0
2018-Feb-24 08:30N 35°36' E 140°07'1 1.7
2018-Feb-24 08:00N 35°36' E 140°06'0 0.0
2018-Feb-24 07:30N 35°36' E 140°06'1 2.3
2018-Feb-24 07:00N 35°35' E 140°05'0 0.0
2018-Feb-24 06:30N 35°35' E 140°05'0 0.0
2018-Feb-24 06:00N 35°35' E 140°05'0 0.0
2018-Feb-24 05:30N 35°35' E 140°05'1 1.8
2018-Feb-24 05:00N 35°36' E 140°06'3 6.4
2018-Feb-24 04:30N 35°32' E 140°05'2 4.8
2018-Feb-24 04:00N 35°34' E 140°03'0 0.6
2018-Feb-24 03:30N 35°34' E 140°03'0 0.0
2018-Feb-24 03:01N 35°34' E 140°03'0 0.0
2018-Feb-24 02:30N 35°34' E 140°03'0 0.0
2018-Feb-24 02:00N 35°34' E 140°03'0 0.0
2018-Feb-24 01:30N 35°34' E 140°03'0 0.0
2018-Feb-24 01:00N 35°34' E 140°03'0 0.0
2018-Feb-24 00:31N 35°34' E 140°03'2 3.6
2018-Feb-24 00:01N 35°35' E 140°05'1 2.9
2018-Feb-23 23:30N 35°36' E 140°06'0 0.0
2018-Feb-23 23:00N 35°36' E 140°06'0 1.0
2018-Feb-23 22:31N 35°36' E 140°05'2 3.8
2018-Feb-23 22:01N 35°35' E 140°03'4 7.4
2018-Feb-23 21:30N 35°33' E 139°59'1 1.3
2018-Feb-23 20:54N 35°32' E 139°60'3 8.5
2018-Feb-23 20:30N 35°34' E 140°03'4 7.0
2018-Feb-23 20:00N 35°36' E 140°07'0 0.0
2018-Feb-23 19:30N 35°36' E 140°07'0 0.0
2018-Feb-23 19:00N 35°36' E 140°07'0 0.0
2018-Feb-23 18:30N 35°36' E 140°07'0 0.0
2018-Feb-23 18:00N 35°36' E 140°07'0 0.0
2018-Feb-23 17:30N 35°36' E 140°07'0 0.0
2018-Feb-23 17:00N 35°36' E 140°07'0 0.0
2018-Feb-23 16:30N 35°36' E 140°07'0 0.0
2018-Feb-23 16:00N 35°36' E 140°07'0 0.0
2018-Feb-23 15:29N 35°36' E 140°07'0 0.0
2018-Feb-23 15:00N 35°36' E 140°07'0 0.0
2018-Feb-23 14:30N 35°36' E 140°07'0 0.0
2018-Feb-23 14:00N 35°36' E 140°07'0 0.0
2018-Feb-23 13:30N 35°36' E 140°07'0 0.0
2018-Feb-23 13:00N 35°36' E 140°07'0 0.0
2018-Feb-23 12:30N 35°36' E 140°07'0 0.0
2018-Feb-23 12:00N 35°36' E 140°07'0 0.0
2018-Feb-23 11:30N 35°36' E 140°07'0 0.0
2018-Feb-23 11:00N 35°36' E 140°07'0 0.0
2018-Feb-23 10:30N 35°36' E 140°07'0 0.0
2018-Feb-23 10:00N 35°36' E 140°07'0 0.0
2018-Feb-23 09:30N 35°36' E 140°07'0 0.0
2018-Feb-23 09:00N 35°36' E 140°07'0 0.0
2018-Feb-23 08:30N 35°36' E 140°07'0 0.0
2018-Feb-23 08:00N 35°36' E 140°07'0 0.0
2018-Feb-23 07:30N 35°36' E 140°07'0 0.0
2018-Feb-23 07:00N 35°36' E 140°07'0 0.0
2018-Feb-23 06:30N 35°36' E 140°07'0 0.0
2018-Feb-23 06:00N 35°36' E 140°07'2 3.8
2018-Feb-23 05:31N 35°35' E 140°05'5 9.8
2018-Feb-23 05:00N 35°31' E 140°02'1 2.3
2018-Feb-23 04:30N 35°31' E 140°01'0 0.5
2018-Feb-23 04:00N 35°31' E 140°01'0 0.0
2018-Feb-23 03:30N 35°31' E 140°01'0 0.0
2018-Feb-23 03:00N 35°31' E 140°01'0 0.0
2018-Feb-23 02:28N 35°31' E 140°01'0 0.0
2018-Feb-23 01:59N 35°31' E 140°01'0 0.0
2018-Feb-23 01:30N 35°31' E 140°01'1 2.6
2018-Feb-23 01:00N 35°32' E 140°02'4 8.0
2018-Feb-23 00:31N 35°35' E 140°05'2 3.2
2018-Feb-23 00:00N 35°36' E 140°07'1 2.7
2018-Feb-22 23:30N 35°36' E 140°05'0 0.1
2018-Feb-22 23:00N 35°36' E 140°05'1 1.1
2018-Feb-22 22:29N 35°36' E 140°05'2 5.2
2018-Feb-22 22:01N 35°35' E 140°03'3 6.0
2018-Feb-22 21:30N 35°33' E 139°60'0 0.5
2018-Feb-22 21:00N 35°32' E 139°59'2 4.6
2018-Feb-22 20:30N 35°34' E 140°02'5 9.1
2018-Feb-22 20:00N 35°36' E 140°07'0 0.0
2018-Feb-22 19:30N 35°36' E 140°07'0 0.0
2018-Feb-22 19:00N 35°36' E 140°07'0 0.0
2018-Feb-22 18:30N 35°36' E 140°07'0 0.0
2018-Feb-22 18:00N 35°36' E 140°07'0 0.0
2018-Feb-22 17:30N 35°36' E 140°07'0 0.0
2018-Feb-22 17:00N 35°36' E 140°07'0 0.0
2018-Feb-22 16:30N 35°36' E 140°07'0 0.0
2018-Feb-22 16:00N 35°36' E 140°07'0 0.0
2018-Feb-22 15:30N 35°36' E 140°07'0 0.0
2018-Feb-22 15:00N 35°36' E 140°07'0 0.0
2018-Feb-22 14:30N 35°36' E 140°07'0 0.0
2018-Feb-22 14:00N 35°36' E 140°07'0 0.0
2018-Feb-22 13:30N 35°36' E 140°07'0 0.0
2018-Feb-22 13:00N 35°36' E 140°07'0 0.0
2018-Feb-22 12:30N 35°36' E 140°07'0 0.0
2018-Feb-22 12:00N 35°36' E 140°07'0 0.0
2018-Feb-22 11:28N 35°36' E 140°07'0 0.0
2018-Feb-22 11:00N 35°36' E 140°07'0 0.0
2018-Feb-22 10:30N 35°36' E 140°07'0 0.0
2018-Feb-22 10:00N 35°36' E 140°07'0 0.0
2018-Feb-22 09:30N 35°36' E 140°07'0 0.0
2018-Feb-22 09:00N 35°36' E 140°07'0 0.0
2018-Feb-22 08:29N 35°36' E 140°07'0 0.0
2018-Feb-22 07:56N 35°36' E 140°07'0 1.1
2018-Feb-22 07:31N 35°35' E 140°06'0 0.9
2018-Feb-22 06:59N 35°36' E 140°07'0 0.0
2018-Feb-22 06:30N 35°36' E 140°07'0 0.0
2018-Feb-22 06:00N 35°36' E 140°07'0 0.0
2018-Feb-22 05:30N 35°36' E 140°07'0 0.0
2018-Feb-22 05:00N 35°36' E 140°07'2 4.8
2018-Feb-22 04:31N 35°35' E 140°04'510.0
2018-Feb-22 04:00N 35°31' E 139°60'4 8.6
2018-Feb-22 03:30N 35°27' E 139°58'0 0.1
2018-Feb-22 03:00N 35°27' E 139°58'0 0.1
2018-Feb-22 02:30N 35°27' E 139°58'2 3.7
2018-Feb-22 01:59N 35°29' E 139°57'0 0.9
2018-Feb-22 01:30N 35°29' E 139°57'0 0.0
2018-Feb-22 00:59N 35°29' E 139°57'2 3.5
2018-Feb-22 00:28N 35°30' E 139°58'4 9.7
2018-Feb-22 00:00N 35°33' E 140°02'4 7.9
2018-Feb-21 23:31N 35°35' E 140°06'1 1.0
2018-Feb-21 23:00N 35°36' E 140°07'0 0.0
2018-Feb-21 22:30N 35°36' E 140°07'0 0.0
2018-Feb-21 22:00N 35°36' E 140°07'0 0.0
2018-Feb-21 21:30N 35°36' E 140°07'0 0.0
2018-Feb-21 21:00N 35°36' E 140°07'0 0.0
2018-Feb-21 20:30N 35°36' E 140°07'0 0.0
2018-Feb-21 19:59N 35°36' E 140°07'0 0.0
2018-Feb-21 19:30N 35°36' E 140°07'0 0.0
2018-Feb-21 19:00N 35°36' E 140°07'0 0.0
2018-Feb-21 18:30N 35°36' E 140°07'0 0.0
2018-Feb-21 18:00N 35°36' E 140°07'0 0.0
2018-Feb-21 17:30N 35°36' E 140°07'0 0.0
2018-Feb-21 17:01N 35°36' E 140°07'0 0.0
2018-Feb-21 16:30N 35°36' E 140°07'0 0.0
2018-Feb-21 16:00N 35°36' E 140°07'0 0.0
2018-Feb-21 15:30N 35°36' E 140°07'0 0.0
2018-Feb-21 15:00N 35°36' E 140°07'0 0.0
2018-Feb-21 14:30N 35°36' E 140°07'0 0.0
2018-Feb-21 14:00N 35°36' E 140°07'0 0.0
2018-Feb-21 13:31N 35°36' E 140°07'0 0.0
2018-Feb-21 13:00N 35°36' E 140°07'0 0.0
2018-Feb-21 12:30N 35°36' E 140°07'0 0.0
2018-Feb-21 12:00N 35°36' E 140°07'0 0.0
2018-Feb-21 11:30N 35°36' E 140°07'0 0.0
2018-Feb-21 11:00N 35°36' E 140°07'0 0.0
2018-Feb-21 10:30N 35°36' E 140°07'0 0.0
2018-Feb-21 10:00N 35°36' E 140°07'0 0.0
2018-Feb-21 09:30N 35°36' E 140°07'0 0.0
2018-Feb-21 09:00N 35°36' E 140°07'0 0.0
2018-Feb-21 08:30N 35°36' E 140°07'0 0.0
2018-Feb-21 08:00N 35°36' E 140°07'0 0.0
2018-Feb-21 07:30N 35°36' E 140°07'0 0.0
2018-Feb-21 07:00N 35°36' E 140°07'0 0.0
2018-Feb-21 06:30N 35°36' E 140°07'0 0.0
2018-Feb-21 06:00N 35°36' E 140°07'0 0.0
2018-Feb-21 05:30N 35°36' E 140°07'0 0.0
2018-Feb-21 05:00N 35°36' E 140°07'0 0.4
2018-Feb-21 04:30N 35°36' E 140°07'4 8.8
2018-Feb-21 04:00N 35°33' E 140°03'1 1.1
2018-Feb-21 03:30N 35°32' E 140°03'0 0.8
2018-Feb-21 03:00N 35°33' E 140°03'0 0.0
2018-Feb-21 02:30N 35°33' E 140°03'0 0.0
2018-Feb-21 02:00N 35°33' E 140°03'3 5.2
2018-Feb-21 01:31N 35°35' E 140°04'2 4.4
2018-Feb-21 01:00N 35°36' E 140°07'0 0.0
2018-Feb-21 00:30N 35°36' E 140°07'0 0.0
2018-Feb-21 00:00N 35°36' E 140°07'0 0.0
2018-Feb-20 23:30N 35°36' E 140°07'2 3.3
2018-Feb-20 23:00N 35°36' E 140°05'0 0.1
2018-Feb-20 22:31N 35°36' E 140°05'1 2.0
2018-Feb-20 22:00N 35°35' E 140°05'3 6.3
2018-Feb-20 21:30N 35°34' E 140°01'3 4.6
2018-Feb-20 20:57N 35°32' E 139°59'3 7.5
2018-Feb-20 20:30N 35°34' E 140°02'4 8.3
2018-Feb-20 20:00N 35°36' E 140°07'0 0.0
2018-Feb-20 19:31N 35°36' E 140°07'0 0.0
2018-Feb-20 19:00N 35°36' E 140°07'0 0.0
2018-Feb-20 18:31N 35°36' E 140°07'0 0.0
2018-Feb-20 18:00N 35°36' E 140°07'0 0.0
2018-Feb-20 17:30N 35°36' E 140°07'0 0.0
2018-Feb-20 17:00N 35°36' E 140°07'0 0.0
2018-Feb-20 16:31N 35°36' E 140°07'0 0.0
2018-Feb-20 16:00N 35°36' E 140°07'0 0.0
2018-Feb-20 15:31N 35°36' E 140°07'0 0.0
2018-Feb-20 15:01N 35°36' E 140°07'0 0.0
2018-Feb-20 14:30N 35°36' E 140°07'0 0.0
2018-Feb-20 14:00N 35°36' E 140°07'0 0.0
2018-Feb-20 13:31N 35°36' E 140°07'0 0.0
2018-Feb-20 13:01N 35°36' E 140°07'0 0.0
2018-Feb-20 12:31N 35°36' E 140°07'0 0.0
2018-Feb-20 12:01N 35°36' E 140°07'0 0.0
2018-Feb-20 11:31N 35°36' E 140°07'0 0.0
2018-Feb-20 11:01N 35°36' E 140°07'0 0.0
2018-Feb-20 10:31N 35°36' E 140°07'0 0.0
2018-Feb-20 10:00N 35°36' E 140°07'0 0.0
2018-Feb-20 09:30N 35°36' E 140°07'0 0.0
2018-Feb-20 09:00N 35°36' E 140°07'0 0.0
2018-Feb-20 08:30N 35°36' E 140°07'0 0.0
2018-Feb-20 08:01N 35°36' E 140°07'0 0.0
2018-Feb-20 07:30N 35°36' E 140°07'0 0.0
2018-Feb-20 07:00N 35°36' E 140°07'0 0.1
2018-Feb-20 06:31N 35°36' E 140°07'0 0.1
2018-Feb-20 06:00N 35°36' E 140°07'2 3.0
2018-Feb-20 05:30N 35°35' E 140°05'510.0
2018-Feb-20 04:58N 35°31' E 140°02'0 0.9
2018-Feb-20 04:30N 35°31' E 140°02'4 7.7
2018-Feb-20 04:01N 35°32' E 139°57'0 0.4
2018-Feb-20 03:22N 35°32' E 139°57'410.4
2018-Feb-20 03:01N 35°34' E 140°01'5 9.5
2018-Feb-20 02:30N 35°36' E 140°07'0 0.0
2018-Feb-20 02:00N 35°36' E 140°07'0 0.0
2018-Feb-20 01:31N 35°36' E 140°07'2 4.5
2018-Feb-20 01:00N 35°35' E 140°04'612.0
2018-Feb-20 00:28N 35°29' E 140°00'0 1.0
2018-Feb-20 00:00N 35°29' E 140°01'0 0.0
2018-Feb-19 23:30N 35°29' E 140°01'0 0.2
2018-Feb-19 23:00N 35°29' E 140°01'2 3.4
2018-Feb-19 22:30N 35°30' E 139°59'4 7.4
2018-Feb-19 21:56N 35°34' E 139°56'0 0.7
2018-Feb-19 21:30N 35°34' E 139°56'5 9.6
2018-Feb-19 21:00N 35°35' E 140°02'4 8.8
2018-Feb-19 20:31N 35°36' E 140°07'0 0.0
2018-Feb-19 20:00N 35°36' E 140°07'0 0.0
2018-Feb-19 19:30N 35°36' E 140°07'0 0.0
2018-Feb-19 19:00N 35°36' E 140°07'0 0.0
2018-Feb-19 18:30N 35°36' E 140°07'0 0.0
2018-Feb-19 18:00N 35°36' E 140°07'0 0.0
2018-Feb-19 17:30N 35°36' E 140°07'0 0.0
2018-Feb-19 17:00N 35°36' E 140°07'0 0.0
2018-Feb-19 16:29N 35°36' E 140°07'0 0.0
2018-Feb-19 16:00N 35°36' E 140°07'0 0.0
2018-Feb-19 15:28N 35°36' E 140°07'0 0.0
2018-Feb-19 15:00N 35°36' E 140°07'0 0.0
2018-Feb-19 14:29N 35°36' E 140°07'0 0.0
2018-Feb-19 14:00N 35°36' E 140°07'0 0.0
2018-Feb-19 13:30N 35°36' E 140°07'0 0.0
2018-Feb-19 13:00N 35°36' E 140°07'0 0.0
2018-Feb-19 12:30N 35°36' E 140°07'0 0.0
2018-Feb-19 11:59N 35°36' E 140°07'0 0.0
2018-Feb-19 11:29N 35°36' E 140°07'0 0.0
2018-Feb-19 10:53N 35°36' E 140°07'0 0.0
2018-Feb-19 10:27N 35°36' E 140°07'0 0.0
2018-Feb-19 09:58N 35°36' E 140°07'0 0.0
2018-Feb-19 09:30N 35°36' E 140°07'0 0.0
2018-Feb-19 09:00N 35°36' E 140°07'0 0.0
2018-Feb-19 08:25N 35°36' E 140°07'0 0.0
2018-Feb-19 08:00N 35°36' E 140°07'0 0.0
2018-Feb-19 07:29N 35°36' E 140°07'0 0.0
2018-Feb-19 07:00N 35°36' E 140°07'0 0.0
2018-Feb-19 06:30N 35°36' E 140°07'0 0.0
2018-Feb-19 06:00N 35°36' E 140°07'0 0.0
2018-Feb-19 05:30N 35°36' E 140°07'0 0.0
2018-Feb-19 05:00N 35°36' E 140°07'0 0.0
2018-Feb-19 04:30N 35°36' E 140°07'0 0.0
2018-Feb-19 04:00N 35°36' E 140°07'0 0.0
2018-Feb-19 03:30N 35°36' E 140°07'1 2.6
2018-Feb-19 03:00N 35°36' E 140°05'1 1.6
2018-Feb-19 02:30N 35°36' E 140°05'0 0.9
2018-Feb-19 02:00N 35°36' E 140°05'2 4.9
2018-Feb-19 01:30N 35°35' E 140°03'1 1.9
2018-Feb-19 01:00N 35°35' E 140°02'0 0.7
2018-Feb-19 00:29N 35°35' E 140°01'0 0.0
2018-Feb-19 00:00N 35°35' E 140°01'0 0.0
2018-Feb-18 23:30N 35°35' E 140°01'3 6.2
2018-Feb-18 23:01N 35°36' E 140°05'0 0.9
2018-Feb-18 22:30N 35°36' E 140°05'2 4.2
2018-Feb-18 22:00N 35°35' E 140°03'3 5.5
2018-Feb-18 21:31N 35°34' E 140°00'2 3.1
2018-Feb-18 21:00N 35°35' E 140°02'4 8.6
2018-Feb-18 20:30N 35°36' E 140°07'0 0.0
2018-Feb-18 19:58N 35°36' E 140°07'0 0.0
2018-Feb-18 19:30N 35°36' E 140°07'0 0.0
2018-Feb-18 19:00N 35°36' E 140°07'0 0.0
2018-Feb-18 18:30N 35°36' E 140°07'0 0.0
2018-Feb-18 18:00N 35°36' E 140°07'0 0.0
2018-Feb-18 17:30N 35°36' E 140°07'0 0.0
2018-Feb-18 17:00N 35°36' E 140°07'0 0.0
2018-Feb-18 16:30N 35°36' E 140°07'0 0.0
2018-Feb-18 16:00N 35°36' E 140°07'0 0.0
2018-Feb-18 15:30N 35°36' E 140°07'0 0.0
2018-Feb-18 14:59N 35°36' E 140°07'0 0.0
2018-Feb-18 14:30N 35°36' E 140°07'0 0.0
2018-Feb-18 14:00N 35°36' E 140°07'0 0.0
2018-Feb-18 13:29N 35°36' E 140°07'0 0.0
2018-Feb-18 12:59N 35°36' E 140°07'0 0.0
2018-Feb-18 12:30N 35°36' E 140°07'0 0.0
2018-Feb-18 12:00N 35°36' E 140°07'0 0.0
2018-Feb-18 11:30N 35°36' E 140°07'0 0.0
2018-Feb-18 10:59N 35°36' E 140°07'0 0.0
2018-Feb-18 10:30N 35°36' E 140°07'0 0.0
2018-Feb-18 10:00N 35°36' E 140°07'0 0.0
2018-Feb-18 09:30N 35°36' E 140°07'0 0.0
2018-Feb-18 09:00N 35°36' E 140°07'0 0.0
2018-Feb-18 08:07N 35°36' E 140°07'0 0.1
2018-Feb-18 08:00N 35°36' E 140°07'0 0.0
2018-Feb-18 07:29N 35°36' E 140°07'0 0.0
2018-Feb-18 07:00N 35°36' E 140°07'0 0.0
2018-Feb-18 06:30N 35°36' E 140°07'0 0.0
2018-Feb-18 06:00N 35°36' E 140°07'0 0.0
2018-Feb-18 05:30N 35°36' E 140°07'0 0.0
2018-Feb-18 05:00N 35°36' E 140°07'0 0.0
2018-Feb-18 04:30N 35°36' E 140°07'0 0.0
2018-Feb-18 04:00N 35°36' E 140°07'0 0.0
2018-Feb-18 03:31N 35°36' E 140°07'0 0.0
2018-Feb-18 03:01N 35°36' E 140°07'0 0.0
2018-Feb-18 02:30N 35°36' E 140°07'0 0.0
2018-Feb-18 02:00N 35°36' E 140°07'0 0.0
2018-Feb-18 01:30N 35°36' E 140°07'0 0.0
2018-Feb-18 01:01N 35°36' E 140°07'0 0.0
2018-Feb-18 00:30N 35°36' E 140°07'0 0.0
2018-Feb-18 00:00N 35°36' E 140°07'0 0.0
2018-Feb-17 23:31N 35°36' E 140°07'0 0.0
2018-Feb-17 23:00N 35°36' E 140°07'0 0.0
2018-Feb-17 22:30N 35°36' E 140°07'0 0.0
2018-Feb-17 21:51N 35°36' E 140°07'0 0.0
2018-Feb-17 17:16N 35°36' E 140°07'0 0.0
2018-Feb-17 17:00N 35°36' E 140°07'0 0.0
2018-Feb-17 16:30N 35°36' E 140°07'0 0.0
2018-Feb-17 16:00N 35°36' E 140°07'0 0.0
2018-Feb-17 15:28N 35°36' E 140°07'0 0.0
2018-Feb-17 15:00N 35°36' E 140°07'0 0.0
2018-Feb-17 14:30N 35°36' E 140°07'0 0.0
2018-Feb-17 14:00N 35°36' E 140°07'0 0.0
2018-Feb-17 13:30N 35°36' E 140°07'0 0.0
2018-Feb-17 13:00N 35°36' E 140°07'0 0.0
2018-Feb-17 12:30N 35°36' E 140°07'0 0.0
2018-Feb-17 12:00N 35°36' E 140°07'0 0.0
2018-Feb-17 11:30N 35°36' E 140°07'0 0.0
2018-Feb-17 10:59N 35°36' E 140°07'0 0.0
2018-Feb-17 10:30N 35°36' E 140°07'0 0.0
2018-Feb-17 10:00N 35°36' E 140°07'0 0.0
2018-Feb-17 09:30N 35°36' E 140°07'0 0.0
2018-Feb-17 09:00N 35°36' E 140°07'0 0.0
2018-Feb-17 08:30N 35°36' E 140°07'0 0.0
2018-Feb-17 08:00N 35°36' E 140°07'0 0.0
2018-Feb-17 07:27N 35°36' E 140°07'0 0.0
2018-Feb-17 07:00N 35°36' E 140°07'0 0.0
2018-Feb-17 06:29N 35°36' E 140°07'0 0.0
2018-Feb-17 06:00N 35°36' E 140°07'0 0.0
2018-Feb-17 05:30N 35°36' E 140°07'0 0.0
2018-Feb-17 05:00N 35°36' E 140°07'0 0.0
2018-Feb-17 04:30N 35°36' E 140°07'0 0.0
2018-Feb-17 04:00N 35°36' E 140°07'0 0.0
2018-Feb-17 03:30N 35°36' E 140°07'0 0.0
2018-Feb-17 03:00N 35°36' E 140°07'0 0.0
2018-Feb-17 02:29N 35°36' E 140°07'4 8.2
2018-Feb-17 02:00N 35°33' E 140°03'4 7.7
2018-Feb-17 01:30N 35°30' E 140°01'0 0.1
2018-Feb-17 00:57N 35°30' E 140°01'0 0.2
2018-Feb-17 00:29N 35°30' E 140°01'2 3.5
2018-Feb-16 23:56N 35°32' E 140°00'0 0.5
2018-Feb-16 23:31N 35°32' E 140°00'510.9
2018-Feb-16 23:00N 35°35' E 140°05'1 2.8
2018-Feb-16 22:30N 35°36' E 140°07'0 0.0
2018-Feb-16 22:00N 35°36' E 140°07'0 0.0
2018-Feb-16 11:48N 35°36' E 140°07'0 0.0
2018-Feb-16 11:31N 35°36' E 140°07'0 0.0
2018-Feb-16 11:00N 35°36' E 140°07'0 0.0
2018-Feb-16 10:31N 35°36' E 140°07'0 0.0
2018-Feb-16 10:01N 35°36' E 140°07'0 0.0
2018-Feb-16 07:54N 35°36' E 140°07'0 0.0
2018-Feb-16 07:30N 35°36' E 140°07'0 0.0
2018-Feb-16 07:00N 35°36' E 140°07'0 0.0
2018-Feb-16 06:31N 35°36' E 140°07'3 6.8
2018-Feb-16 06:00N 35°36' E 140°03'6 5.1
2018-Feb-16 04:46N 35°40' E 139°57'3 4.4
2018-Feb-16 04:07N 35°38' E 139°59'111.5
2018-Feb-16 04:00N 35°39' E 139°59'1 0.7
2018-Feb-16 02:47N 35°40' E 139°60'1 2.5
2018-Feb-16 02:20N 35°39' E 139°59'2 7.1
2018-Feb-16 02:00N 35°36' E 139°59'1 1.9
2018-Feb-16 01:29N 35°35' E 139°59'0 0.4
2018-Feb-16 00:59N 35°35' E 139°59'0 0.0
2018-Feb-16 00:30N 35°35' E 139°59'0 0.0
2018-Feb-16 00:00N 35°35' E 139°59'2 3.4
2018-Feb-15 23:30N 35°34' E 139°58'0 0.1
2018-Feb-15 23:00N 35°34' E 139°58'5 9.4
2018-Feb-15 22:28N 35°39' E 139°59'1 2.7
2018-Feb-15 21:57N 35°40' E 139°59'2 4.1
2018-Feb-15 21:31N 35°38' E 139°59'4 8.6
2018-Feb-15 21:00N 35°34' E 139°58'2 4.6
2018-Feb-15 20:31N 35°34' E 140°00'510.1
2018-Feb-15 20:00N 35°35' E 140°06'1 1.1
2018-Feb-15 19:31N 35°36' E 140°07'0 0.0
2018-Feb-15 19:00N 35°36' E 140°07'0 0.0
2018-Feb-15 18:31N 35°36' E 140°07'0 0.0
2018-Feb-15 18:00N 35°36' E 140°07'0 0.0
2018-Feb-15 17:31N 35°36' E 140°07'0 0.0
2018-Feb-15 17:00N 35°36' E 140°07'0 0.0
2018-Feb-15 16:30N 35°36' E 140°07'0 0.0
2018-Feb-15 16:00N 35°36' E 140°07'0 0.0
2018-Feb-15 15:30N 35°36' E 140°07'0 0.0
2018-Feb-15 15:00N 35°36' E 140°07'0 0.0
2018-Feb-15 14:30N 35°36' E 140°07'0 0.0
2018-Feb-15 14:00N 35°36' E 140°07'0 0.0
2018-Feb-15 13:30N 35°36' E 140°07'0 0.0
2018-Feb-15 13:00N 35°36' E 140°07'0 0.0
2018-Feb-15 12:30N 35°36' E 140°07'0 0.0
2018-Feb-15 11:27N 35°36' E 140°07'0 0.0
2018-Feb-15 11:00N 35°36' E 140°07'0 0.0
2018-Feb-15 10:30N 35°36' E 140°07'0 0.0
2018-Feb-15 10:00N 35°36' E 140°07'1 1.0
2018-Feb-15 09:30N 35°35' E 140°06'2 3.9
2018-Feb-15 09:00N 35°35' E 140°04'1 2.9
2018-Feb-15 08:31N 35°36' E 140°06'1 1.9
2018-Feb-15 08:00N 35°36' E 140°07'0 0.0
2018-Feb-15 07:30N 35°36' E 140°07'0 0.0
2018-Feb-15 07:00N 35°36' E 140°07'0 0.0
2018-Feb-15 06:30N 35°36' E 140°07'0 0.0
2018-Feb-15 06:00N 35°36' E 140°07'2 4.1
2018-Feb-15 05:31N 35°35' E 140°04'0 0.0
2018-Feb-15 05:00N 35°35' E 140°04'4 9.0
2018-Feb-15 04:30N 35°32' E 140°01'4 8.1
2018-Feb-15 04:00N 35°28' E 139°58'0 0.0
2018-Feb-15 03:30N 35°28' E 139°58'0 0.1
2018-Feb-15 03:01N 35°28' E 139°58'2 2.4
2018-Feb-15 02:22N 35°30' E 139°57'2 4.5
2018-Feb-15 02:00N 35°29' E 139°55'0 0.8
2018-Feb-15 01:30N 35°29' E 139°55'612.0
2018-Feb-15 01:00N 35°33' E 140°01'611.0
2018-Feb-15 00:30N 35°36' E 140°07'0 0.0
2018-Feb-15 00:00N 35°36' E 140°07'0 0.0
2018-Feb-14 23:31N 35°36' E 140°07'1 2.1
2018-Feb-14 23:01N 35°35' E 140°06'1 2.3
2018-Feb-14 22:30N 35°35' E 140°04'2 4.4
2018-Feb-14 22:01N 35°36' E 140°07'0 0.1
2018-Feb-14 21:31N 35°36' E 140°07'  

Dump ship's entire track history